Chipmans Point, Vermont
Current Conditions -  °F | °C
As of 11:55 PM on Thursday 30 Oct 2014 (Local Time) from K6B0 Reporting Station
Overcast Overcast  
Wind Chill: 43°   Ceiling: 4600
Heat Index: 43°   Visibility: 10mi
Dew Point: 32°   Wind: 0mph
Humidity: 65%   Direction: NA
Pressure: 30"   Gusts: NA
Location:  43.7849°N, 73.292°W
Report Text: K6B0 310355Z AUTO 00000KT 10SM OVC046 06/00 A3000 RMK AO2 T00630002
Loading
Personal Weather Stations






























Interactive Weather Map
Tropical Storm Tracking
New forecast layout! Learn more

10-Day Weather Forecast

Advertisements
Track Severe Weather on mobile